createdAt,value
2023-03-11T00:01:07.710Z,94.83
2023-03-11T00:05:13.384Z,93.70
2023-03-11T00:09:15.576Z,93.54
2023-03-11T00:13:18.124Z,94.33
2023-03-11T00:17:20.113Z,95.50
2023-03-11T00:21:22.210Z,100.00
2023-03-11T00:25:26.772Z,98.74
2023-03-11T00:29:28.742Z,93.69
2023-03-11T00:33:31.383Z,93.51
2023-03-11T00:37:33.470Z,92.59
2023-03-11T00:41:35.487Z,92.37
2023-03-11T00:45:37.705Z,92.78
2023-03-11T00:49:39.751Z,92.09
2023-03-11T00:53:42.726Z,92.30
2023-03-11T00:57:46.656Z,92.03
2023-03-11T01:01:49.063Z,93.34
2023-03-11T01:05:51.138Z,92.71
2023-03-11T01:09:53.151Z,93.54
2023-03-11T01:13:55.187Z,93.41
2023-03-11T01:17:57.200Z,93.85
2023-03-11T01:21:59.280Z,93.90
2023-03-11T01:26:01.250Z,94.60
2023-03-11T01:30:03.945Z,94.62
2023-03-11T01:34:06.050Z,95.03
2023-03-11T01:38:08.355Z,94.79
2023-03-11T01:42:10.408Z,94.58
2023-03-11T01:46:26.593Z,93.14
2023-03-11T01:50:34.737Z,93.10
2023-03-11T01:54:39.577Z,92.17
2023-03-11T01:58:44.963Z,91.93
2023-03-11T02:02:51.826Z,91.61
2023-03-11T02:06:57.291Z,91.57
2023-03-11T02:11:02.230Z,91.14
2023-03-11T02:15:06.699Z,91.88
2023-03-11T02:19:35.936Z,92.12
2023-03-11T02:23:53.918Z,92.32
2023-03-11T02:27:59.737Z,92.46
2023-03-11T02:32:07.803Z,93.25
2023-03-11T02:36:30.862Z,92.39
2023-03-11T02:40:52.829Z,91.93
2023-03-11T02:45:05.714Z,91.65
2023-03-11T02:49:09.622Z,94.86
2023-03-11T02:53:11.706Z,93.92
2023-03-11T02:57:13.795Z,91.39
2023-03-11T03:01:16.641Z,90.86
2023-03-11T03:05:21.517Z,91.10
2023-03-11T03:09:24.166Z,91.17
2023-03-11T03:13:27.607Z,90.20
2023-03-11T03:17:31.382Z,90.77
2023-03-11T03:21:34.056Z,90.51
2023-03-11T03:25:36.596Z,90.64
2023-03-11T03:29:42.234Z,91.08
2023-03-11T03:33:44.685Z,92.05
2023-03-11T03:37:46.942Z,91.87
2023-03-11T03:41:49.116Z,91.47
2023-03-11T03:46:17.825Z,91.18
2023-03-11T03:50:23.004Z,91.26
2023-03-11T03:54:27.043Z,90.23
2023-03-11T03:58:29.660Z,89.53
2023-03-11T04:02:31.842Z,90.04
2023-03-11T04:06:34.781Z,89.93
2023-03-11T04:10:39.982Z,91.27
2023-03-11T04:14:44.103Z,91.67
2023-03-11T04:18:46.739Z,92.93
2023-03-11T04:22:48.947Z,92.51
2023-03-11T04:26:52.676Z,92.56
2023-03-11T04:30:55.325Z,92.43
2023-03-11T04:34:57.876Z,91.71
2023-03-11T04:39:00.290Z,92.02
2023-03-11T04:43:06.572Z,91.28
2023-03-11T04:47:08.690Z,91.98
2023-03-11T04:51:11.602Z,92.44
2023-03-11T04:55:15.172Z,93.09
2023-03-11T04:59:18.543Z,93.54
2023-03-11T05:03:22.173Z,93.69
2023-03-11T05:07:24.512Z,93.70
2023-03-11T05:11:27.073Z,93.52
2023-03-11T05:15:31.158Z,93.13
2023-03-11T05:19:35.820Z,93.28
2023-03-11T05:23:45.366Z,94.44
2023-03-11T05:27:49.178Z,94.75
2023-03-11T05:31:52.762Z,95.14
2023-03-11T05:35:54.923Z,95.16
2023-03-11T05:39:57.218Z,95.24
2023-03-11T05:43:59.402Z,93.78
2023-03-11T05:48:01.723Z,93.84
2023-03-11T05:52:05.191Z,93.68
2023-03-11T05:56:08.201Z,93.38
2023-03-11T06:00:12.192Z,92.97
2023-03-11T06:04:20.678Z,91.13
2023-03-11T06:08:22.961Z,88.74
2023-03-11T06:12:25.111Z,89.26
2023-03-11T06:16:50.047Z,89.26
2023-03-11T06:20:57.476Z,89.46
2023-03-11T06:24:59.556Z,88.73
2023-03-11T06:29:01.722Z,88.97
2023-03-11T06:33:04.212Z,88.12
2023-03-11T06:37:06.336Z,84.19
2023-03-11T06:41:09.143Z,84.10
2023-03-11T06:45:11.712Z,82.86
2023-03-11T06:49:15.635Z,82.50
2023-03-11T06:53:18.144Z,82.30
2023-03-11T06:57:21.572Z,82.52
2023-03-11T07:01:28.061Z,81.15
2023-03-11T07:05:31.954Z,80.10
2023-03-11T07:09:39.128Z,80.70
2023-03-11T07:13:43.281Z,80.80
2023-03-11T07:17:45.375Z,81.45
2023-03-11T07:21:47.803Z,81.71
2023-03-11T07:25:51.679Z,81.45
2023-03-11T07:29:53.730Z,80.85
2023-03-11T07:33:58.267Z,78.09
2023-03-11T07:38:00.692Z,77.57
2023-03-11T07:42:05.497Z,76.76
2023-03-11T07:46:16.279Z,72.70
2023-03-11T07:50:19.104Z,70.85
2023-03-11T07:54:21.021Z,68.89
2023-03-11T07:58:23.042Z,70.77
2023-03-11T08:02:25.116Z,85.13
2023-03-11T08:06:31.175Z,72.10
2023-03-11T08:10:33.157Z,67.04
2023-03-11T08:14:35.255Z,68.37
2023-03-11T08:18:37.343Z,67.02
2023-03-11T08:22:45.955Z,66.38
2023-03-11T08:26:57.837Z,68.18
2023-03-11T08:31:00.526Z,68.21
2023-03-11T08:35:02.600Z,66.72
2023-03-11T08:39:04.925Z,67.05
2023-03-11T08:43:07.866Z,67.01
2023-03-11T08:47:10.289Z,67.92
2023-03-11T08:51:13.067Z,67.14
2023-03-11T08:55:18.481Z,64.94
2023-03-11T08:59:20.600Z,63.19
2023-03-11T09:03:22.903Z,60.80
2023-03-11T09:07:24.984Z,61.46
2023-03-11T09:11:27.091Z,60.90
2023-03-11T09:15:29.281Z,57.93
2023-03-11T09:19:31.292Z,59.01
2023-03-11T09:23:33.349Z,59.90
2023-03-11T09:27:35.344Z,59.28
2023-03-11T09:31:38.534Z,58.47
2023-03-11T09:35:42.089Z,56.15
2023-03-11T09:39:44.280Z,55.40
2023-03-11T09:44:11.222Z,55.37
2023-03-11T09:48:32.604Z,54.98
2023-03-11T09:52:44.823Z,55.84
2023-03-11T09:56:46.798Z,57.05
2023-03-11T10:00:49.564Z,58.04
2023-03-11T10:05:15.597Z,57.10
2023-03-11T10:09:39.581Z,57.41
2023-03-11T10:13:53.740Z,54.78
2023-03-11T10:18:04.993Z,52.26
2023-03-11T10:22:36.690Z,48.63
2023-03-11T10:26:44.768Z,49.55
2023-03-11T10:30:55.674Z,50.44
2023-03-11T10:35:06.014Z,49.49
2023-03-11T10:39:10.653Z,49.68
2023-03-11T10:43:33.525Z,49.67
2023-03-11T10:47:35.542Z,49.37
2023-03-11T10:51:37.571Z,48.42
2023-03-11T10:55:51.959Z,49.10
2023-03-11T10:59:56.933Z,49.00
2023-03-11T11:04:01.669Z,49.24
2023-03-11T11:08:11.998Z,46.99
2023-03-11T11:12:17.609Z,49.53
2023-03-11T11:16:20.863Z,48.40
2023-03-11T11:20:25.020Z,45.71
2023-03-11T11:24:31.255Z,46.83
2023-03-11T11:28:33.979Z,47.32
2023-03-11T11:32:37.285Z,46.38
2023-03-11T11:36:39.684Z,46.32
2023-03-11T11:40:41.773Z,45.84
2023-03-11T11:44:48.244Z,45.05
2023-03-11T11:49:02.506Z,45.25
2023-03-11T11:53:17.681Z,43.73
2023-03-11T11:57:21.750Z,44.67
2023-03-11T12:01:29.851Z,44.78
2023-03-11T12:05:35.587Z,45.13
2023-03-11T12:10:21.404Z,46.11
2023-03-11T12:14:46.553Z,45.33
2023-03-11T12:19:39.437Z,44.80
2023-03-11T12:24:32.383Z,45.53
2023-03-11T12:28:56.532Z,45.74
2023-03-11T12:33:09.420Z,45.69
2023-03-11T12:37:16.902Z,45.59
2023-03-11T12:41:42.666Z,44.86
2023-03-11T12:45:51.205Z,44.39
2023-03-11T12:49:55.794Z,43.44
2023-03-11T12:53:57.782Z,44.87
2023-03-11T12:58:34.736Z,44.96
2023-03-11T13:02:51.878Z,45.21
2023-03-11T13:07:03.338Z,44.69
2023-03-11T13:11:35.805Z,43.78
2023-03-11T13:15:38.287Z,43.08
2023-03-11T13:19:48.833Z,43.13
2023-03-11T13:23:51.074Z,43.36
2023-03-11T13:28:03.437Z,43.39
2023-03-11T13:32:42.722Z,43.07
2023-03-11T13:37:17.582Z,42.58
2023-03-11T13:41:26.567Z,41.77
2023-03-11T13:45:35.642Z,41.28
2023-03-11T13:49:49.307Z,42.05
2023-03-11T13:53:56.077Z,41.43
2023-03-11T13:57:58.306Z,41.91
2023-03-11T14:02:08.588Z,42.19
2023-03-11T14:06:19.478Z,42.06
2023-03-11T14:10:28.981Z,42.17
2023-03-11T14:14:42.645Z,42.46
2023-03-11T14:19:00.643Z,41.99
2023-03-11T14:23:02.787Z,42.40
2023-03-11T14:27:09.320Z,43.17
2023-03-11T14:31:24.523Z,42.77
2023-03-11T14:35:27.707Z,42.98
2023-03-11T14:39:35.056Z,42.86
2023-03-11T14:43:41.544Z,42.44
2023-03-11T14:47:55.113Z,42.73
2023-03-11T14:52:03.831Z,42.72
2023-03-11T14:56:12.809Z,42.29
2023-03-11T15:00:33.967Z,43.13
2023-03-11T15:04:39.045Z,42.48
2023-03-11T15:08:47.780Z,43.07
2023-03-11T15:12:49.902Z,43.75
2023-03-11T15:16:53.668Z,43.57
2023-03-11T15:21:06.078Z,43.58
2023-03-11T15:25:17.131Z,43.05
2023-03-11T15:29:19.138Z,43.04
2023-03-11T15:33:30.907Z,43.46
2023-03-11T15:37:34.104Z,43.30
2023-03-11T15:41:36.121Z,44.18
2023-03-11T15:45:38.131Z,44.84
2023-03-11T15:49:40.680Z,44.81
2023-03-11T15:53:42.644Z,44.30
2023-03-11T15:57:46.055Z,44.24
2023-03-11T16:01:48.059Z,43.98
2023-03-11T16:05:50.087Z,44.36
2023-03-11T16:09:52.082Z,44.47
2023-03-11T16:13:54.106Z,43.79
2023-03-11T16:17:59.121Z,43.31
2023-03-11T16:22:02.839Z,43.95
2023-03-11T16:26:05.749Z,44.18
2023-03-11T16:30:08.441Z,44.82
2023-03-11T16:34:10.562Z,44.54
2023-03-11T16:38:12.878Z,45.04
2023-03-11T16:42:22.636Z,45.44
2023-03-11T16:46:24.820Z,45.71
2023-03-11T16:50:27.691Z,46.25
2023-03-11T16:54:29.707Z,46.50
2023-03-11T16:58:31.714Z,46.66
2023-03-11T17:02:34.023Z,46.87
2023-03-11T17:06:36.053Z,47.16
2023-03-11T17:10:40.623Z,47.07
2023-03-11T17:14:42.671Z,47.58
2023-03-11T17:18:44.725Z,47.17
2023-03-11T17:22:46.826Z,47.72
2023-03-11T17:26:48.962Z,47.77
2023-03-11T17:30:50.953Z,47.75
2023-03-11T17:34:53.027Z,48.03
2023-03-11T17:38:55.386Z,48.41
2023-03-11T17:42:57.405Z,49.29
2023-03-11T17:47:00.624Z,51.03
2023-03-11T17:51:11.481Z,51.98
2023-03-11T17:55:13.525Z,53.38
2023-03-11T17:59:17.612Z,54.54
2023-03-11T18:03:19.989Z,54.63
2023-03-11T18:07:23.534Z,55.42
2023-03-11T18:11:28.027Z,56.38
2023-03-11T18:15:30.030Z,56.63
2023-03-11T18:19:32.030Z,56.80
2023-03-11T18:23:35.466Z,57.24
2023-03-11T18:27:38.122Z,57.78
2023-03-11T18:31:40.188Z,58.16
2023-03-11T18:35:42.349Z,61.28
2023-03-11T18:39:44.424Z,61.29
2023-03-11T18:43:46.591Z,60.36
2023-03-11T18:47:48.821Z,63.54
2023-03-11T18:51:50.833Z,62.39
2023-03-11T18:55:59.388Z,62.11
2023-03-11T19:00:01.451Z,62.97
2023-03-11T19:04:03.462Z,63.24
2023-03-11T19:08:05.722Z,63.62
2023-03-11T19:12:07.938Z,64.29
2023-03-11T19:16:11.947Z,64.14
2023-03-11T19:20:13.951Z,64.69
2023-03-11T19:24:15.991Z,65.05
2023-03-11T19:28:18.952Z,65.14
2023-03-11T19:32:21.001Z,64.99
2023-03-11T19:36:23.087Z,66.06
2023-03-11T19:40:29.624Z,66.15
2023-03-11T19:44:31.619Z,66.16
2023-03-11T19:48:34.075Z,66.54
2023-03-11T19:52:36.228Z,66.88
2023-03-11T19:56:38.334Z,67.81
2023-03-11T20:00:41.949Z,67.98
2023-03-11T20:04:44.047Z,66.90
2023-03-11T20:08:46.625Z,67.07
2023-03-11T20:13:01.513Z,67.92
2023-03-11T20:17:03.997Z,68.62
2023-03-11T20:21:08.777Z,68.70
2023-03-11T20:25:10.828Z,69.45
2023-03-11T20:29:12.884Z,69.59
2023-03-11T20:33:14.988Z,70.02
2023-03-11T20:37:17.137Z,70.52
2023-03-11T20:41:19.748Z,70.40
2023-03-11T20:45:22.263Z,70.17
2023-03-11T20:49:24.500Z,70.09
2023-03-11T20:53:26.917Z,71.18
2023-03-11T20:57:29.647Z,70.89
2023-03-11T21:01:33.171Z,70.28
2023-03-11T21:05:37.014Z,69.34
2023-03-11T21:09:39.063Z,70.69
2023-03-11T21:13:41.663Z,71.77
2023-03-11T21:17:43.680Z,72.59
2023-03-11T21:21:45.796Z,72.15
2023-03-11T21:25:47.840Z,71.99
2023-03-11T21:29:50.063Z,72.17
2023-03-11T21:33:54.209Z,74.10
2023-03-11T21:37:56.293Z,74.33
2023-03-11T21:41:58.640Z,73.49
2023-03-11T21:46:00.898Z,73.61
2023-03-11T21:50:04.169Z,73.70
2023-03-11T21:54:06.413Z,73.32
2023-03-11T21:58:09.049Z,74.72
2023-03-11T22:02:14.704Z,74.94
2023-03-11T22:06:16.824Z,75.00
2023-03-11T22:10:19.700Z,75.58
2023-03-11T22:14:22.271Z,75.85
2023-03-11T22:18:24.538Z,75.20
2023-03-11T22:22:26.834Z,74.69
2023-03-11T22:26:28.841Z,74.54
2023-03-11T22:30:31.015Z,75.51
2023-03-11T22:34:33.038Z,76.86
2023-03-11T22:38:36.751Z,77.41
2023-03-11T22:42:39.372Z,77.49
2023-03-11T22:46:41.398Z,78.00
2023-03-11T22:50:44.445Z,77.18
2023-03-11T22:54:46.564Z,77.79
2023-03-11T22:58:48.712Z,77.93
2023-03-11T23:02:55.744Z,78.18
2023-03-11T23:06:58.103Z,77.39
2023-03-11T23:11:05.563Z,77.24
2023-03-11T23:15:12.410Z,76.59
2023-03-11T23:19:14.410Z,77.07
2023-03-11T23:23:16.353Z,76.92
2023-03-11T23:27:18.680Z,77.81
2023-03-11T23:31:24.124Z,78.38
2023-03-11T23:35:26.266Z,77.33
2023-03-11T23:39:28.403Z,76.87
2023-03-11T23:43:30.479Z,78.04
2023-03-11T23:47:32.708Z,78.48
2023-03-11T23:51:34.760Z,78.12
2023-03-11T23:55:37.978Z,78.14
2023-03-11T23:59:39.995Z,77.55
